Flight Track Log - Related Links

Times and Time Zones

All times are in EDT time to prevent confusion due to time zone crossing. See the LXJ523 flight status page for this flight to view local times or setup timezone preferences in your user account.

Time Position Orientation Groundspeed Altitude Reporting Facility
EDT Latitude Longitude Course Direction KTS MPH feet Rate Location/Type
Sat 09:50:10 AM 32.8500 -96.8667 320° Northwest 156 180 1,400  Level Dallas / Fort Worth TRACON
Sat 09:51:04 AM 32.8833 -96.9000 320° Northwest 235 270 4,500 2,632 Climbing Dallas / Fort Worth TRACON
Sat 09:52:04 AM 32.9500 -96.8833 12° North 297 342 6,400 2,000 Climbing Dallas / Fort Worth TRACON
Sat 09:53:04 AM 32.9333 -96.8000 103° East 293 337 8,500 3,119 Climbing Dallas / Fort Worth TRACON
Sat 09:55:01 AM 32.8578 -96.6022 114° Southeast 339 390 15,600 3,390 Climbing Fort Worth Center
Sat 09:56:01 AM 32.8197 -96.5011 114° Southeast 357 411 18,500 2,850 Climbing Fort Worth Center
Sat 09:57:01 AM 32.7769 -96.3733 112° Southeast 371 427 21,300 2,600 Climbing Fort Worth Center
Sat 09:58:01 AM 32.7486 -96.2550 106° East 398 458 23,700 2,300 Climbing Fort Worth Center
Sat 09:59:01 AM 32.7242 -96.0947 100° East 434 499 25,900 2,050 Climbing Fort Worth Center
Sat 10:00:01 AM 32.7019 -95.9617 101° East 457 526 27,800 2,000 Climbing Fort Worth Center
Sat 10:01:01 AM 32.6769 -95.7919 100° East 470 541 29,900 1,835 Climbing Fort Worth Center
Sat 10:02:02 AM 32.6583 -95.6492 99° East 485 558 31,500 1,600 Climbing Fort Worth Center
Sat 10:03:01 AM 32.6658 -95.4589 87° East 496 571 33,100 1,412 Climbing Fort Worth Center
Sat 10:04:01 AM 32.6778 -95.2883 85° East 509 586 34,300 1,200 Climbing Fort Worth Center
Sat 10:05:01 AM 32.6911 -95.1078 85° East 527 606 35,500 1,200 Climbing Fort Worth Center
Sat 10:06:01 AM 32.7003 -94.9325 86° East 532 612 36,700 1,250 Climbing Fort Worth Center
Sat 10:07:01 AM 32.6925 -94.7547 93° East 538 619 38,000 1,250 Climbing Fort Worth Center
Sat 10:08:01 AM 32.6431 -94.5936 110° East 518 596 39,200 1,150 Climbing Fort Worth Center
Sat 10:09:01 AM 32.5875 -94.4375 113° Southeast 512 589 40,300 900 Climbing Fort Worth Center
Sat 10:10:01 AM 32.5356 -94.2789 111° Southeast 512 589 41,000 350 Climbing Fort Worth Center
Sat 10:11:01 AM 32.4689 -94.1261 117° Southeast 512 589 41,000  Level Fort Worth Center
Sat 10:12:01 AM 32.3822 -94.0014 129° Southeast 501 577 41,000  Level Fort Worth Center
Sat 10:13:01 AM 32.2950 -93.8694 128° Southeast 501 577 41,000  Level Fort Worth Center
Sat 10:14:59 AM 32.1361 -93.6364 129° Southeast 505 581 41,000  Level Houston Center
Sat 10:16:01 AM 32.0486 -93.5064 128° Southeast 504 580 41,000  Level Houston Center
Sat 10:17:02 AM 31.9600 -93.3819 130° Southeast 498 573 41,000  Level Houston Center
Sat 10:18:03 AM 31.8547 -93.2286 129° Southeast 500 575 41,000  Level Houston Center
Sat 10:19:05 AM 31.7781 -93.1161 129° Southeast 501 577 41,000  Level Houston Center
Sat 10:20:06 AM 31.6889 -92.9872 129° Southeast 506 582 41,000  Level Houston Center
Sat 10:21:07 AM 31.6017 -92.8625 129° Southeast 499 574 41,000  Level Houston Center
Sat 10:22:09 AM 31.5139 -92.7369 129° Southeast 495 570 41,000  Level Houston Center
Sat 10:23:10 AM 31.4092 -92.5867 129° Southeast 495 570 41,000  Level Houston Center
Sat 10:24:11 AM 31.3197 -92.4606 130° Southeast 502 578 41,000  Level Houston Center
Sat 10:25:12 AM 31.2308 -92.3353 130° Southeast 500 575 41,000 -683 Level Houston Center
Sat 10:26:14 AM 31.1442 -92.2119 129° Southeast 494 568 39,600 -2,098 Descending Houston Center
Sat 10:27:15 AM 31.0522 -92.0828 130° Southeast 508 585 36,700 -2,803 Descending Houston Center
Sat 10:28:16 AM 30.9608 -91.9544 130° Southeast 518 596 33,900 -2,780 Descending Houston Center
Sat 10:29:18 AM 30.8733 -91.8325 130° Southeast 495 570 31,000 -2,829 Descending Houston Center
Sat 10:30:19 AM 30.7903 -91.7158 130° Southeast 473 544 28,100 -2,557 Descending Houston Center
Sat 10:31:20 AM 30.7092 -91.6047 130° Southeast 453 521 25,800 -2,439 Descending Houston Center
Sat 10:32:22 AM 30.6136 -91.4692 129° Southeast 452 520 23,100 -2,439 Descending Houston Center
Sat 10:33:23 AM 30.5339 -91.3628 131° Southeast 451 519 20,800 -2,213 Descending Houston Center
Sat 10:34:24 AM 30.4517 -91.2606 133° Southeast 439 505 18,600 -2,049 Descending Houston Center
Sat 10:35:26 AM 30.3636 -91.1797 142° Southeast 407 468 16,600 -1,983 Descending Houston Center
Sat 10:36:19 AM 30.2792 -91.1033 142° Southeast 377 434 14,800 -1,895 Descending Houston Center
Sat 10:37:20 AM 30.2022 -91.0339 142° Southeast 352 405 13,000 -1,721 Descending Houston Center
Sat 10:38:21 AM 30.1294 -90.9639 140° Southeast 337 388 11,300 -1,636 Descending Houston Center
Sat 10:39:21 AM 30.1269 -90.8608 92° East 328 377 9,700 -1,835 Descending Houston Center
Sat 10:40:22 AM 30.1200 -90.7625 95° East 306 352 7,600 -1,820 Descending Houston Center
Sat 10:41:23 AM 30.0989 -90.6767 106° East 267 307 6,000 -1,444 Descending Houston Center
Sat 10:42:35 AM 30.0717 -90.5925 110° East 254 292 4,400 -992 Descending Houston Center
Sat 10:43:24 AM 30.0553 -90.5294 107° East 217 250 4,000 -655 Descending Houston Center
Sat 10:44:25 AM 30.0408 -90.4697 106° East 193 222 3,200 -887 Descending Houston Center
Sat 10:45:19 AM 30.0292 -90.4200 105° East 177 204 2,300 -892 Descending Houston Center
Sat 10:45:39 AM 30.0275 -90.4089 100° East 196 226 2,100 -806 Descending Houston Center
Sat 10:46:26 AM 30.0172 -90.3675 106° East 151 174 1,400 -722 Descending Houston Center
Sat 10:47:27 AM 30.0053 -90.3247 108° East 139 160 800 -590 Descending Houston Center
Sat 10:49:00 AM 29.9934 -90.2580 101° East  Level Estimated
Sat 10:56:00 AM 29.9934 -90.2580 101° East  Level Estimated
Sat 10:57:00 AM 29.9934 -90.2580 101° East  Level Estimated
Sat 10:58:00 AM 29.9934 -90.2580 101° East  Level Estimated

Login

Don't have an account? Register now (free) for customized features, flight alerts, and more!